createdAt,value
2022-11-10T00:01:52.271Z,6.57
2022-11-10T00:04:39.696Z,6.48
2022-11-10T00:07:27.431Z,6.40
2022-11-10T00:10:15.880Z,6.32
2022-11-10T00:13:03.169Z,6.26
2022-11-10T00:16:09.190Z,6.18
2022-11-10T00:18:56.644Z,6.08
2022-11-10T00:21:44.221Z,5.98
2022-11-10T00:24:31.646Z,5.87
2022-11-10T00:27:18.971Z,5.76
2022-11-10T00:30:06.603Z,5.70
2022-11-10T00:32:54.130Z,5.66
2022-11-10T00:35:41.351Z,5.60
2022-11-10T00:38:28.434Z,5.54
2022-11-10T00:41:15.794Z,5.49
2022-11-10T00:44:03.327Z,5.47
2022-11-10T00:46:50.804Z,5.46
2022-11-10T00:49:39.298Z,5.44
2022-11-10T00:52:26.774Z,5.38
2022-11-10T00:55:14.055Z,5.35
2022-11-10T00:58:01.483Z,5.36
2022-11-10T01:00:48.719Z,5.31
2022-11-10T01:03:36.196Z,5.23
2022-11-10T01:06:23.347Z,5.15
2022-11-10T01:09:11.170Z,5.12
2022-11-10T01:11:58.199Z,5.09
2022-11-10T01:14:47.967Z,5.04
2022-11-10T01:17:35.306Z,5.02
2022-11-10T01:20:23.551Z,5.02
2022-11-10T01:23:10.874Z,5.02
2022-11-10T01:26:02.240Z,5.02
2022-11-10T01:28:49.727Z,5.04
2022-11-10T01:31:37.450Z,5.05
2022-11-10T01:34:24.575Z,5.07
2022-11-10T01:37:12.404Z,5.07
2022-11-10T01:39:59.514Z,5.07
2022-11-10T01:42:52.280Z,5.07
2022-11-10T01:45:39.601Z,5.09
2022-11-10T01:48:27.493Z,5.10
2022-11-10T01:51:29.110Z,5.12
2022-11-10T01:54:19.797Z,5.15
2022-11-10T01:57:09.781Z,5.12
2022-11-10T01:59:57.414Z,5.08
2022-11-10T02:02:48.127Z,5.04
2022-11-10T02:05:36.534Z,4.99
2022-11-10T02:08:25.222Z,4.89
2022-11-10T02:11:13.362Z,4.82
2022-11-10T02:14:00.898Z,4.73
2022-11-10T02:16:48.727Z,4.63
2022-11-10T02:19:42.289Z,4.56
2022-11-10T02:22:30.030Z,4.53
2022-11-10T02:25:21.451Z,4.51
2022-11-10T02:28:08.879Z,4.45
2022-11-10T02:30:56.302Z,4.40
2022-11-10T02:33:44.137Z,4.35
2022-11-10T02:36:31.558Z,4.30
2022-11-10T02:39:19.089Z,4.24
2022-11-10T02:42:10.922Z,4.17
2022-11-10T02:44:58.144Z,4.11
2022-11-10T02:47:45.368Z,4.10
2022-11-10T02:50:32.686Z,4.11
2022-11-10T02:53:20.327Z,4.14
2022-11-10T02:56:08.374Z,4.11
2022-11-10T02:58:55.171Z,4.08
2022-11-10T03:01:42.672Z,4.03
2022-11-10T03:04:29.919Z,3.98
2022-11-10T03:07:17.088Z,3.97
2022-11-10T03:10:05.076Z,3.94
2022-11-10T03:12:55.882Z,3.93
2022-11-10T03:15:42.797Z,3.91
2022-11-10T03:18:30.224Z,3.88
2022-11-10T03:21:17.350Z,3.84
2022-11-10T03:24:04.869Z,3.82
2022-11-10T03:26:51.678Z,3.78
2022-11-10T03:29:39.104Z,3.73
2022-11-10T03:32:26.632Z,3.70
2022-11-10T03:35:14.195Z,3.72
2022-11-10T03:38:01.487Z,3.71
2022-11-10T03:41:17.420Z,3.68
2022-11-10T03:43:57.686Z,3.64
2022-11-10T03:46:49.046Z,3.57
2022-11-10T03:49:38.630Z,3.54
2022-11-10T03:52:26.365Z,3.55
2022-11-10T03:55:15.740Z,3.55
2022-11-10T03:58:04.082Z,3.55
2022-11-10T04:00:52.839Z,3.55
2022-11-10T04:03:39.791Z,3.55
2022-11-10T04:06:45.450Z,3.56
2022-11-10T04:09:33.412Z,3.59
2022-11-10T04:12:38.996Z,3.63
2022-11-10T04:15:44.956Z,3.68
2022-11-10T04:18:32.484Z,3.74
2022-11-10T04:21:19.929Z,3.76
2022-11-10T04:24:07.644Z,3.78
2022-11-10T04:26:55.177Z,3.80
2022-11-10T04:29:42.009Z,3.83
2022-11-10T04:32:29.920Z,3.84
2022-11-10T04:35:17.243Z,3.85
2022-11-10T04:38:04.362Z,3.88
2022-11-10T04:40:52.056Z,3.90
2022-11-10T04:43:39.521Z,3.92
2022-11-10T04:46:28.009Z,3.99
2022-11-10T04:49:15.193Z,4.02
2022-11-10T04:52:02.746Z,4.03
2022-11-10T04:54:49.844Z,4.04
2022-11-10T04:57:36.856Z,4.02
2022-11-10T05:00:24.280Z,3.99
2022-11-10T05:03:12.813Z,4.01
2022-11-10T05:06:00.362Z,4.07
2022-11-10T05:08:48.199Z,4.12
2022-11-10T05:11:35.744Z,4.14
2022-11-10T05:14:23.254Z,4.20
2022-11-10T05:17:10.374Z,4.24
2022-11-10T05:19:57.901Z,4.31
2022-11-10T05:23:08.673Z,4.39
2022-11-10T05:25:56.244Z,4.48
2022-11-10T05:28:44.858Z,4.52
2022-11-10T05:31:32.079Z,4.53
2022-11-10T05:34:19.608Z,4.54
2022-11-10T05:37:07.215Z,4.57
2022-11-10T05:39:54.355Z,4.60
2022-11-10T05:42:48.129Z,4.65
2022-11-10T05:45:35.145Z,4.68
2022-11-10T05:48:22.277Z,4.71
2022-11-10T05:51:09.693Z,4.75
2022-11-10T05:53:56.708Z,4.80
2022-11-10T05:56:44.136Z,4.86
2022-11-10T05:59:31.581Z,4.94
2022-11-10T06:02:18.983Z,5.02
2022-11-10T06:05:06.923Z,5.14
2022-11-10T06:07:54.249Z,5.29
2022-11-10T06:10:41.694Z,5.42
2022-11-10T06:13:29.692Z,5.58
2022-11-10T06:16:17.137Z,5.75
2022-11-10T06:19:04.460Z,5.92
2022-11-10T06:21:57.077Z,6.07
2022-11-10T06:24:47.914Z,6.24
2022-11-10T06:27:35.442Z,6.41
2022-11-10T06:30:22.700Z,6.59
2022-11-10T06:33:10.193Z,6.76
2022-11-10T06:35:57.683Z,6.97
2022-11-10T06:38:45.252Z,7.12
2022-11-10T06:41:33.976Z,7.23
2022-11-10T06:44:21.534Z,7.33
2022-11-10T06:47:09.064Z,7.47
2022-11-10T06:49:56.489Z,7.68
2022-11-10T06:52:43.915Z,7.91
2022-11-10T06:55:31.565Z,8.12
2022-11-10T06:58:19.280Z,8.33
2022-11-10T07:01:06.974Z,8.55
2022-11-10T07:04:18.068Z,8.77
2022-11-10T07:07:01.983Z,8.97
2022-11-10T07:09:49.053Z,9.16
2022-11-10T07:12:36.787Z,9.37
2022-11-10T07:15:23.905Z,9.58
2022-11-10T07:18:11.331Z,9.92
2022-11-10T07:20:58.556Z,10.21
2022-11-10T07:23:47.195Z,10.39
2022-11-10T07:26:34.534Z,10.62
2022-11-10T07:29:21.923Z,10.89
2022-11-10T07:32:09.182Z,11.22
2022-11-10T07:34:56.709Z,11.54
2022-11-10T07:37:44.247Z,11.91
2022-11-10T07:40:31.583Z,12.32
2022-11-10T07:43:20.773Z,12.75
2022-11-10T07:46:08.257Z,13.21
2022-11-10T07:48:55.295Z,13.74
2022-11-10T07:51:43.417Z,14.19
2022-11-10T07:54:30.741Z,14.67
2022-11-10T07:57:17.833Z,15.07
2022-11-10T08:00:05.593Z,15.40
2022-11-10T08:02:52.817Z,15.55
2022-11-10T08:05:40.469Z,15.80
2022-11-10T08:08:27.738Z,16.20
2022-11-10T08:11:14.919Z,16.50
2022-11-10T08:14:03.516Z,16.81
2022-11-10T08:16:51.080Z,17.23
2022-11-10T08:19:38.604Z,17.69
2022-11-10T08:22:25.896Z,17.91
2022-11-10T08:25:13.547Z,18.05
2022-11-10T08:28:02.015Z,18.10
2022-11-10T08:30:49.848Z,18.04
2022-11-10T08:33:36.868Z,18.10
2022-11-10T08:36:24.499Z,18.41
2022-11-10T08:39:13.280Z,18.72
2022-11-10T08:42:06.669Z,19.10
2022-11-10T08:44:53.841Z,19.37
2022-11-10T08:47:41.952Z,19.38
2022-11-10T08:50:29.261Z,19.50
2022-11-10T08:53:17.742Z,19.91
2022-11-10T08:56:04.877Z,20.25
2022-11-10T08:58:54.527Z,20.43
2022-11-10T09:01:41.885Z,20.88
2022-11-10T09:04:29.403Z,21.27
2022-11-10T09:07:16.264Z,21.54
2022-11-10T09:10:07.798Z,21.81
2022-11-10T09:12:55.178Z,21.51
2022-11-10T09:15:43.116Z,21.32
2022-11-10T09:18:30.516Z,20.77
2022-11-10T09:21:18.445Z,20.91
2022-11-10T09:24:05.907Z,21.15
2022-11-10T09:26:53.508Z,21.60
2022-11-10T09:29:40.867Z,21.99
2022-11-10T09:32:28.672Z,22.38
2022-11-10T09:35:15.922Z,22.50
2022-11-10T09:38:03.864Z,22.50
2022-11-10T09:40:51.287Z,22.81
2022-11-10T09:43:57.525Z,23.16
2022-11-10T09:46:53.891Z,23.47
2022-11-10T09:49:53.303Z,23.85
2022-11-10T09:52:40.791Z,24.11
2022-11-10T09:55:43.515Z,24.28
2022-11-10T09:58:35.958Z,24.28
2022-11-10T10:01:38.303Z,24.48
2022-11-10T10:04:25.660Z,24.63
2022-11-10T10:07:12.844Z,24.91
2022-11-10T10:10:20.790Z,25.07
2022-11-10T10:13:26.961Z,25.14
2022-11-10T10:16:32.778Z,25.43
2022-11-10T10:19:21.368Z,25.87
2022-11-10T10:22:11.253Z,26.20
2022-11-10T10:25:02.677Z,26.36
2022-11-10T10:27:58.496Z,26.52
2022-11-10T10:30:45.823Z,27.02
2022-11-10T10:33:33.461Z,27.66
2022-11-10T10:36:20.574Z,27.61
2022-11-10T10:39:30.811Z,27.23
2022-11-10T10:42:36.797Z,27.60
2022-11-10T10:45:29.485Z,27.32
2022-11-10T10:48:26.667Z,27.35
2022-11-10T10:51:28.469Z,27.78
2022-11-10T10:54:23.271Z,28.67
2022-11-10T10:57:16.736Z,28.90
2022-11-10T11:00:18.603Z,28.59
2022-11-10T11:03:26.471Z,28.61
2022-11-10T11:06:17.113Z,29.07
2022-11-10T11:09:08.709Z,29.83
2022-11-10T11:12:11.829Z,30.21
2022-11-10T11:15:28.724Z,29.68
2022-11-10T11:18:17.407Z,29.11
2022-11-10T11:21:14.661Z,29.10
2022-11-10T11:24:12.945Z,29.24
2022-11-10T11:27:20.441Z,29.65
2022-11-10T11:30:10.429Z,29.87
2022-11-10T11:33:03.634Z,29.38
2022-11-10T11:35:58.083Z,28.98
2022-11-10T11:38:48.583Z,29.41
2022-11-10T11:41:42.972Z,29.78
2022-11-10T11:44:42.179Z,30.01
2022-11-10T11:47:34.824Z,30.63
2022-11-10T11:51:10.792Z,31.17
2022-11-10T11:54:37.846Z,31.42
2022-11-10T11:57:42.441Z,32.16
2022-11-10T12:00:34.352Z,32.05
2022-11-10T12:03:49.082Z,32.05
2022-11-10T12:06:36.334Z,32.21
2022-11-10T12:09:33.457Z,32.76
2022-11-10T12:12:39.621Z,33.41
2022-11-10T12:15:38.210Z,34.09
2022-11-10T12:19:05.367Z,34.47
2022-11-10T12:22:32.835Z,34.62
2022-11-10T12:25:59.930Z,34.56
2022-11-10T12:29:29.862Z,34.61
2022-11-10T12:32:59.741Z,34.81
2022-11-10T12:36:27.305Z,34.91
2022-11-10T12:39:53.031Z,35.07
2022-11-10T12:43:20.660Z,35.31
2022-11-10T12:46:51.913Z,35.74
2022-11-10T12:50:19.320Z,35.93
2022-11-10T12:53:46.780Z,36.15
2022-11-10T13:00:43.561Z,36.65
2022-11-10T13:04:10.469Z,36.56
2022-11-10T13:07:37.677Z,36.34
2022-11-10T13:11:04.994Z,36.29
2022-11-10T13:14:12.440Z,36.10
2022-11-10T13:17:39.800Z,35.83
2022-11-10T13:20:59.172Z,35.50
2022-11-10T13:24:09.232Z,35.28
2022-11-10T13:26:57.274Z,34.84
2022-11-10T13:30:04.564Z,34.63
2022-11-10T13:37:23.949Z,34.02
2022-11-10T13:40:37.002Z,33.67
2022-11-10T13:44:04.259Z,33.48
2022-11-10T13:47:20.769Z,33.14
2022-11-10T13:50:30.928Z,32.84
2022-11-10T13:57:35.528Z,31.69
2022-11-10T14:01:05.625Z,31.29
